Aérodrome :
LOGIN :

S'inscrire | Disclaimer

   EN    FR    IT 

 










Légende :    VFR   VFR Marginal   IFR   IFR Intensif   IFR Très Intensif
Visi : 
Plafond : 
>= 8 km
>= 3000ft
5 à 8 km
1000 à 3000 ft
1500m à 5 km
500 à 1000 ft
800 à 1500m
200 à 500 ft
< 800m
< 200 ft
Symboles :   Orages  Brouillard  Fortes neiges  Fortes précipitations  Vent > 20 kt
SIGMETs :   Divers  Orages  Givrage  Turbulence  Onde Orograph.  Cendres Volcan.







- Altitude de l'aérodrome : 408 ft
- Code IATA : FKB


EDSB - Karlsruhe Baden Baden

DERNIER METAR :
  • 290650Z 21008KT 9999 VCSH SCT030 BKN060 16/15 Q0999

METARs EXPIRÉS :
  • 290620Z 20009KT 9999 VCSH FEW012 SCT035 BKN060 17/15 Q0999
  • 290550Z 20009KT 9999 -RA BKN030 17/15 Q0999
  • 290520Z 21008KT 9999 BKN027 16/15 Q0999
  • 290450Z 20009KT 9999 SCT029 BKN068 16/15 Q0999
  • 290420Z 20008KT 9999 SCT030 BKN040 17/15 Q0998

TAF TAF EDSB
Valide du 29 à 06h jusqu'au 30 à 06h UTC


290500Z 2906/3006 21010KT 9999 SCT040
PROB30
TEMPO 2913/2918 -TSRA SCT035CB
Pas de NOTAMs connus pour ce terrain.



MET'MAP, la Météo Aéronautique d'un coup d'oeil ! - Copyright ORBIFLY Décembre 2007 - Disclaimer

ORBIFLY MET'MAP TEAM :

Programmation & Développement : Alexandra Zaïnal
Conception & Développement : Baudouin d'Aumeries
Co-Programmation & Développement : Marc-Olivier Méhu
Soutien technique & logistique : Manuel Goepfert

Contact : metmap@orbifly.com




SOURCES & CREDITS :

   NOAA